Česky Dansk Deutsch English Español Suomi Français Magyar Italiano Nederlands norsk Polski Português svenska Türkçe

 

Het Weer

Pietermaritzburg (Zuid Afrika)

12:00, 12 oktober 2014 (GMT)

NWNNE
WE
SWSSE
Home            
Pietermaritzburg Greytown Durban, Durban International Airport Durban/Virginia Margate Ladysmith Ulundi Richard Bay Vryheid Newcastle Port St Johns Bethlehem Airport Umtata Maseru / Moshoeshoe Maseru-Mia Standerton Frankfort Ermelo Manzini / Matsapa Airport Aliwal North Carolina Bloemfontein, Bloemfontein Airport Welkom

Om een weerknop op uw website of weblog te plaatsen, copieer onderstaande code en plak die in uw pagina. In het eerste vakje staat HTML-code, in het tweede vakje UBB-code.


Add to Google

Details

Wind speed:4 bf, 15 kn, 7.7 m/s, 17.3 miles/h, 27.8 km/h
Vindstød på up til:5 bf, 20 kn, 10.3 m/s, 23.0 miles/h, 37.0 km/h
Wind direction:S, 190°
Het Weer:moderate
Temperature:22°C, 72°F
Gefühlte Temperatur:24°C, 75°F
Dew-point:16°C, 61°F
Atmospheric pressure:1017 hPa, 762.8 mmHg, 30.03 inHg, 1.004 atm
Relative humidity:68.8 %
METAR:FAPM 121200Z 19015G20KT 22/16 Q1017

Snelkoppelingen

Actuele weersinformatie van de hele wereld. Voeg locaties toe met het plus (+) symbool. Deze snelkoppelingen kunnen worden toegevoegd aan Google.

Lid van de Technetium groep

website free tracking
StatCounter NetStat W3C Validator

20-10-2018 12:03:48
astro.technetium.be money.technetium.be phote.technetium.be tafeltennistafel.technetium.be www.ligfiets.net